Time;durP1;ratioP1;P1;durP2;ratioP2;P2;SDS_P1;SDS_P2;PMS_P1;PMS_P2;Temp;Humidity;BMP_temperature;BMP_pressure;BME280_temperature;BME280_humidity;BME280_pressure;Samples;Min_cycle;Max_cycle;Signal;HPM_P1;HPM_P2
2022/05/30 00:00:42;;;;;;;9.48;2.20;;;7.90;99.90;;;;;;5070630;28;20433;-47
2022/05/30 00:03:08;;;;;;;11.35;2.30;;;7.90;99.90;;;;;;5070815;28;20098;-49
2022/05/30 00:05:34;;;;;;;11.65;2.53;;;7.90;99.90;;;;;;5070642;28;20461;-46
2022/05/30 00:08:01;;;;;;;12.05;2.72;;;8.10;99.90;;;;;;5070207;28;20036;-46
2022/05/30 00:10:27;;;;;;;8.85;2.30;;;7.80;99.90;;;;;;5069935;28;20141;-49
2022/05/30 00:12:53;;;;;;;8.63;2.35;;;7.80;99.90;;;;;;5070084;28;20041;-51
2022/05/30 00:15:20;;;;;;;6.97;2.22;;;7.80;99.90;;;;;;5051439;28;20087;-45
2022/05/30 00:17:46;;;;;;;10.20;2.65;;;7.80;99.90;;;;;;5070242;28;20047;-46
2022/05/30 00:20:13;;;;;;;9.38;2.47;;;7.50;99.90;;;;;;5070417;28;20044;-45
2022/05/30 00:22:39;;;;;;;6.05;2.10;;;7.70;99.90;;;;;;5035806;28;20546;-47
2022/05/30 00:25:06;;;;;;;10.07;2.55;;;7.80;99.90;;;;;;5070578;28;20051;-48
2022/05/30 00:27:32;;;;;;;9.27;2.90;;;7.80;99.90;;;;;;5052196;28;20407;-46
2022/05/30 00:29:58;;;;;;;8.02;2.40;;;7.80;99.90;;;;;;5070455;28;20493;-46
2022/05/30 00:32:24;;;;;;;14.45;2.38;;;7.80;99.90;;;;;;5070335;28;20068;-48
2022/05/30 00:34:50;;;;;;;8.85;2.38;;;7.60;99.90;;;;;;5069987;28;20911;-47
2022/05/30 00:37:16;;;;;;;13.20;2.70;;;7.70;99.90;;;;;;5069709;28;20068;-49
2022/05/30 00:39:42;;;;;;;12.85;2.83;;;7.60;99.90;;;;;;5069826;28;20037;-48
2022/05/30 00:42:13;;;;;;;9.95;2.38;;;7.80;99.90;;;;;;5070150;28;20044;-47
2022/05/30 00:44:39;;;;;;;10.10;2.47;;;7.90;99.90;;;;;;5070099;28;20251;-48
2022/05/30 00:47:05;;;;;;;9.95;2.50;;;7.90;99.90;;;;;;5069943;28;20061;-47
2022/05/30 00:49:31;;;;;;;8.25;2.20;;;7.90;99.90;;;;;;5052160;28;20154;-45
2022/05/30 00:52:02;;;;;;;6.40;2.17;;;8.00;99.90;;;;;;5069969;28;20037;-51
2022/05/30 00:54:35;;;;;;;8.30;2.20;;;8.00;99.90;;;;;;5071499;28;20070;-48
2022/05/30 00:57:20;;;;;;;7.15;2.38;;;8.20;99.90;;;;;;5074190;28;20050;-49
2022/05/30 00:59:52;;;;;;;9.55;2.40;;;7.90;99.90;;;;;;5073888;28;20037;-49
2022/05/30 01:02:19;;;;;;;10.70;2.25;;;7.90;99.90;;;;;;5073939;28;20060;-50
2022/05/30 01:07:30;;;;;;;10.98;2.33;;;8.00;99.90;;;;;;5073494;28;20063;-45
2022/05/30 01:09:56;;;;;;;13.63;2.88;;;7.90;99.90;;;;;;5073785;28;20037;-48
2022/05/30 01:12:37;;;;;;;8.43;2.45;;;7.90;99.90;;;;;;5073379;28;20052;-46
2022/05/30 01:15:08;;;;;;;7.72;2.40;;;7.90;99.90;;;;;;5073412;28;20045;-47
2022/05/30 01:17:40;;;;;;;8.73;1.92;;;7.90;99.90;;;;;;5054523;28;20488;-46
2022/05/30 01:20:20;;;;;;;14.43;3.25;;;7.60;99.90;;;;;;5073923;28;20536;-46
2022/05/30 01:22:49;;;;;;;9.32;2.65;;;7.80;99.90;;;;;;5073297;28;20074;-45
2022/05/30 01:25:33;;;;;;;12.63;3.03;;;7.60;99.90;;;;;;5073605;28;20045;-46
2022/05/30 01:28:05;;;;;;;10.85;3.25;;;7.60;99.90;;;;;;5073466;28;20051;-48
2022/05/30 01:30:34;;;;;;;8.88;2.70;;;7.80;99.90;;;;;;5055141;28;20072;-47
2022/05/30 01:33:00;;;;;;;12.98;3.20;;;7.50;99.90;;;;;;5073076;28;20029;-46
2022/05/30 01:35:27;;;;;;;9.52;2.72;;;7.60;99.90;;;;;;5055319;28;20044;-47
2022/05/30 01:37:56;;;;;;;6.70;2.50;;;7.40;99.90;;;;;;5071141;28;20506;-47
2022/05/30 01:40:21;;;;;;;7.80;2.45;;;7.40;99.90;;;;;;5072970;28;20071;-47
2022/05/30 01:42:47;;;;;;;7.93;2.60;;;7.40;99.90;;;;;;5072328;28;20173;-46
2022/05/30 01:45:13;;;;;;;7.47;2.20;;;7.30;99.90;;;;;;5073364;28;20090;-44
2022/05/30 01:47:38;;;;;;;7.50;2.80;;;7.30;99.90;;;;;;5072869;28;20044;-51
2022/05/30 01:50:05;;;;;;;6.68;2.53;;;7.30;99.90;;;;;;5073101;28;20097;-47
2022/05/30 01:52:31;;;;;;;8.45;2.80;;;7.40;99.90;;;;;;5072993;28;20049;-46
2022/05/30 01:54:57;;;;;;;8.05;2.75;;;7.50;99.90;;;;;;5072938;28;20565;-48
2022/05/30 01:57:23;;;;;;;9.40;2.90;;;7.50;99.90;;;;;;5073062;28;20033;-47
2022/05/30 01:59:48;;;;;;;10.60;2.97;;;7.40;99.90;;;;;;5072510;28;20036;-47
2022/05/30 02:02:14;;;;;;;10.48;2.67;;;7.40;99.90;;;;;;5072807;28;20470;-48
2022/05/30 02:04:39;;;;;;;8.68;2.72;;;7.50;99.90;;;;;;5073027;28;20040;-45
2022/05/30 02:07:06;;;;;;;9.38;2.78;;;7.60;99.90;;;;;;5072483;28;20040;-46
2022/05/30 02:09:31;;;;;;;8.65;2.65;;;7.70;99.90;;;;;;5072667;28;20040;-47
2022/05/30 02:11:57;;;;;;;8.45;2.75;;;7.60;99.90;;;;;;5072374;28;20522;-47
2022/05/30 02:14:24;;;;;;;8.15;2.60;;;7.70;99.90;;;;;;5053580;28;20292;-48
2022/05/30 02:17:04;;;;;;;10.32;2.75;;;7.70;99.90;;;;;;5072680;28;20084;-47
2022/05/30 02:19:32;;;;;;;8.45;2.83;;;7.80;99.90;;;;;;5040179;28;20032;-45
2022/05/30 02:21:58;;;;;;;8.63;2.72;;;7.80;99.90;;;;;;5072332;28;20111;-48
2022/05/30 02:24:24;;;;;;;6.63;2.70;;;7.80;99.90;;;;;;5072534;28;20108;-45
2022/05/30 02:26:50;;;;;;;11.85;2.47;;;7.80;99.90;;;;;;5072274;28;20052;-45
2022/05/30 02:29:16;;;;;;;8.15;2.95;;;7.70;99.90;;;;;;5072435;28;20040;-46
2022/05/30 02:31:42;;;;;;;7.60;2.70;;;7.60;99.90;;;;;;5053989;28;20051;-46
2022/05/30 02:36:53;;;;;;;9.80;2.92;;;7.50;99.90;;;;;;5072200;28;20386;-46
2022/05/30 02:39:21;;;;;;;8.52;2.90;;;7.40;99.90;;;;;;5072065;28;20094;-47
2022/05/30 02:41:48;;;;;;;7.53;2.72;;;7.30;99.90;;;;;;5072236;28;20044;-46
2022/05/30 02:44:19;;;;;;;10.35;2.78;;;7.30;99.90;;;;;;5072160;28;20080;-45
2022/05/30 02:46:49;;;;;;;12.57;3.13;;;7.30;99.90;;;;;;5072100;28;20442;-48
2022/05/30 02:49:15;;;;;;;9.68;2.72;;;7.20;99.90;;;;;;5072251;28;20123;-48
2022/05/30 02:51:42;;;;;;;8.20;2.88;;;7.20;99.90;;;;;;5053546;28;20066;-49
2022/05/30 02:54:07;;;;;;;8.00;3.03;;;7.20;99.90;;;;;;5071514;28;20055;-50
2022/05/30 02:56:34;;;;;;;9.35;2.83;;;7.20;99.90;;;;;;5071697;28;20036;-47
2022/05/30 02:59:01;;;;;;;7.35;2.90;;;7.20;99.90;;;;;;5072131;28;20424;-46
2022/05/30 03:01:26;;;;;;;12.52;3.40;;;7.00;99.90;;;;;;5071501;28;20038;-45
2022/05/30 03:03:53;;;;;;;7.28;3.08;;;7.10;99.90;;;;;;5071752;28;20043;-46
2022/05/30 03:06:19;;;;;;;8.95;3.28;;;7.00;99.90;;;;;;5071627;28;20040;-48
2022/05/30 03:08:45;;;;;;;7.30;3.10;;;6.90;99.90;;;;;;5053237;28;20028;-49
2022/05/30 03:11:11;;;;;;;8.48;3.20;;;6.90;99.90;;;;;;5071587;28;20128;-47
2022/05/30 03:13:37;;;;;;;7.72;2.90;;;6.90;99.90;;;;;;5070969;28;20056;-47
2022/05/30 03:16:03;;;;;;;5.70;2.85;;;6.90;99.90;;;;;;5070889;28;20052;-45
2022/05/30 03:18:30;;;;;;;6.05;2.78;;;6.80;99.90;;;;;;5069823;28;20116;-47
2022/05/30 03:20:56;;;;;;;6.85;2.80;;;6.90;99.90;;;;;;5053057;28;20041;-46
2022/05/30 03:23:22;;;;;;;9.18;2.65;;;6.80;99.90;;;;;;5070777;28;20036;-45
2022/05/30 03:25:48;;;;;;;6.95;2.60;;;6.80;99.90;;;;;;5071357;28;20391;-45
2022/05/30 03:28:14;;;;;;;7.50;2.45;;;6.80;99.90;;;;;;5053395;28;20059;-45
2022/05/30 03:30:39;;;;;;;5.55;2.40;;;6.80;99.90;;;;;;5071107;28;20052;-46
2022/05/30 03:33:07;;;;;;;5.63;2.40;;;6.80;99.90;;;;;;5070962;28;20040;-48
2022/05/30 03:35:34;;;;;;;6.57;2.60;;;6.60;99.90;;;;;;5071058;28;20044;-45
2022/05/30 03:38:00;;;;;;;7.97;2.35;;;6.60;99.90;;;;;;5070664;28;20125;-46
2022/05/30 03:40:26;;;;;;;7.30;2.90;;;6.60;99.90;;;;;;5071076;28;20090;-49
2022/05/30 03:42:53;;;;;;;7.93;2.63;;;6.60;99.90;;;;;;5070568;28;20079;-50
2022/05/30 03:45:19;;;;;;;6.90;2.55;;;6.70;99.90;;;;;;5070222;28;20530;-45
2022/05/30 03:47:46;;;;;;;6.00;2.33;;;6.70;99.90;;;;;;5069318;28;20028;-46
2022/05/30 03:50:19;;;;;;;8.20;3.20;;;6.70;99.90;;;;;;5070455;28;20048;-45
2022/05/30 03:52:45;;;;;;;7.45;2.60;;;6.70;99.90;;;;;;5070853;28;20467;-46
2022/05/30 03:55:14;;;;;;;7.53;2.60;;;6.60;99.90;;;;;;5070720;28;20054;-49
2022/05/30 03:57:40;;;;;;;7.70;2.65;;;6.60;99.90;;;;;;5070153;28;20048;-46
2022/05/30 04:00:12;;;;;;;5.35;2.38;;;6.60;99.90;;;;;;5069860;28;20068;-47
2022/05/30 04:02:37;;;;;;;6.57;2.25;;;6.60;99.90;;;;;;5052697;28;20119;-47
2022/05/30 04:05:04;;;;;;;9.90;3.30;;;6.60;99.90;;;;;;5070273;28;20132;-49
2022/05/30 04:07:30;;;;;;;9.93;2.58;;;6.70;99.90;;;;;;5070089;28;20044;-46
2022/05/30 04:09:55;;;;;;;7.38;2.55;;;6.60;99.90;;;;;;5070459;28;20398;-47
2022/05/30 04:12:22;;;;;;;7.88;2.70;;;6.60;99.90;;;;;;5070414;28;20067;-44
2022/05/30 04:14:56;;;;;;;6.88;2.75;;;6.60;99.90;;;;;;5052493;28;20050;-47
2022/05/30 04:17:22;;;;;;;6.95;2.50;;;6.70;99.90;;;;;;5070447;28;20119;-45
2022/05/30 04:19:48;;;;;;;6.25;2.67;;;6.70;99.90;;;;;;5069777;28;20040;-48
2022/05/30 04:22:14;;;;;;;9.57;3.30;;;6.70;99.90;;;;;;5070195;28;20028;-47
2022/05/30 04:24:40;;;;;;;7.25;2.40;;;6.70;99.90;;;;;;5070163;28;20826;-45
2022/05/30 04:27:06;;;;;;;9.27;2.75;;;6.60;99.90;;;;;;5070161;28;20044;-47
2022/05/30 04:29:32;;;;;;;8.63;2.95;;;6.60;99.90;;;;;;5068274;28;20501;-46
2022/05/30 04:31:59;;;;;;;11.10;3.45;;;6.60;99.90;;;;;;5070022;28;20036;-48
2022/05/30 04:34:25;;;;;;;7.55;2.92;;;6.70;99.90;;;;;;5070087;28;20041;-48
2022/05/30 04:36:51;;;;;;;5.57;3.13;;;6.70;99.90;;;;;;5070269;28;20024;-47
2022/05/30 04:39:17;;;;;;;8.60;3.17;;;6.90;99.90;;;;;;5069728;28;20047;-48
2022/05/30 04:41:43;;;;;;;8.23;3.65;;;6.90;99.90;;;;;;5069914;28;20044;-45
2022/05/30 04:44:08;;;;;;;7.22;3.65;;;7.10;99.90;;;;;;5068663;28;20036;-44
2022/05/30 04:46:34;;;;;;;7.65;3.45;;;6.90;99.90;;;;;;5069933;28;20043;-46
2022/05/30 04:49:00;;;;;;;10.65;3.50;;;7.00;99.90;;;;;;5069922;28;20067;-48
2022/05/30 04:51:27;;;;;;;7.85;3.60;;;7.10;99.90;;;;;;5069877;28;20029;-46
2022/05/30 04:53:52;;;;;;;10.52;3.03;;;7.10;99.90;;;;;;5068695;28;20032;-49
2022/05/30 04:56:19;;;;;;;7.97;2.90;;;7.10;99.90;;;;;;5069565;28;20124;-47
2022/05/30 04:58:49;;;;;;;7.40;2.60;;;7.10;99.90;;;;;;5070142;28;20044;-49
2022/05/30 05:01:16;;;;;;;9.15;2.47;;;7.10;99.90;;;;;;5052175;28;20047;-46
2022/05/30 05:03:43;;;;;;;8.40;2.53;;;7.20;99.90;;;;;;5069793;28;20040;-46
2022/05/30 05:06:11;;;;;;;4.47;2.83;;;7.30;99.90;;;;;;5069722;28;20438;-46
2022/05/30 05:08:50;;;;;;;9.10;2.90;;;7.50;99.90;;;;;;5069274;28;20125;-48
2022/05/30 05:11:22;;;;;;;8.73;2.80;;;7.50;99.90;;;;;;5069728;28;20072;-45
2022/05/30 05:13:49;;;;;;;9.63;2.70;;;7.50;99.90;;;;;;5069531;28;20060;-45
2022/05/30 05:16:16;;;;;;;7.13;2.53;;;7.60;99.90;;;;;;5069733;28;20394;-46
2022/05/30 05:18:41;;;;;;;8.02;2.40;;;7.70;99.90;;;;;;5069856;28;20075;-46
2022/05/30 05:21:07;;;;;;;5.90;2.72;;;7.70;99.90;;;;;;5069329;28;20491;-48
2022/05/30 05:23:33;;;;;;;9.48;2.40;;;7.80;99.90;;;;;;5068106;28;20040;-46
2022/05/30 05:26:01;;;;;;;5.85;2.15;;;8.10;99.90;;;;;;5069587;28;20028;-49
2022/05/30 05:28:28;;;;;;;5.78;2.33;;;8.10;99.90;;;;;;5068284;28;20052;-50
2022/05/30 05:30:53;;;;;;;7.68;2.45;;;8.20;99.90;;;;;;5069386;28;20064;-51
2022/05/30 05:33:19;;;;;;;5.97;2.20;;;8.20;99.90;;;;;;5069422;28;20072;-46
2022/05/30 05:35:46;;;;;;;5.03;2.20;;;8.40;99.90;;;;;;5069445;28;20036;-49
2022/05/30 05:38:13;;;;;;;4.25;2.28;;;8.50;99.90;;;;;;5069042;28;20047;-48
2022/05/30 05:40:43;;;;;;;6.70;2.05;;;8.70;99.90;;;;;;5071604;28;20041;-48
2022/05/30 05:43:09;;;;;;;5.07;2.00;;;8.70;99.90;;;;;;5072960;28;20037;-46
2022/05/30 05:45:37;;;;;;;6.55;1.90;;;8.70;99.90;;;;;;5073246;28;20051;-47
2022/05/30 05:48:03;;;;;;;6.88;1.90;;;8.80;99.90;;;;;;5072828;28;20036;-48
2022/05/30 05:50:29;;;;;;;4.68;2.00;;;9.10;99.90;;;;;;5072777;28;20040;-46
2022/05/30 05:52:55;;;;;;;3.58;0.90;;;9.10;99.90;;;;;;5073150;28;20048;-46
2022/05/30 05:55:21;;;;;;;2.80;1.10;;;9.00;99.90;;;;;;5071240;28;20127;-49
2022/05/30 05:57:47;;;;;;;4.35;0.80;;;9.10;99.90;;;;;;5055052;28;20075;-47
2022/05/30 06:00:14;;;;;;;2.75;0.75;;;9.10;99.90;;;;;;5072634;28;20091;-45
2022/05/30 06:02:40;;;;;;;5.18;0.90;;;9.20;99.90;;;;;;5054917;28;20052;-45
2022/05/30 06:05:08;;;;;;;6.03;1.00;;;9.40;99.90;;;;;;5072600;28;20043;-45
2022/05/30 06:07:36;;;;;;;5.30;0.93;;;9.50;99.90;;;;;;5072486;28;20048;-46
2022/05/30 06:10:04;;;;;;;4.25;0.73;;;9.60;99.90;;;;;;5072379;28;20032;-45
2022/05/30 06:12:29;;;;;;;5.32;0.85;;;9.70;99.90;;;;;;5072349;28;20063;-47
2022/05/30 06:14:55;;;;;;;2.85;0.82;;;9.90;99.90;;;;;;5072692;28;20041;-46
2022/05/30 06:17:21;;;;;;;3.40;0.90;;;10.00;99.90;;;;;;5072243;28;20033;-48
2022/05/30 06:19:47;;;;;;;3.30;0.70;;;10.30;99.90;;;;;;5072613;28;20047;-47
2022/05/30 06:22:13;;;;;;;5.47;0.90;;;10.30;99.90;;;;;;5072491;28;20036;-46
2022/05/30 06:24:39;;;;;;;4.45;0.77;;;10.40;99.90;;;;;;5037605;28;20052;-47
2022/05/30 06:27:06;;;;;;;4.90;0.82;;;10.40;99.90;;;;;;5071972;28;20037;-48
2022/05/30 06:29:33;;;;;;;4.55;0.82;;;10.50;99.90;;;;;;5054143;28;20044;-46
2022/05/30 06:31:59;;;;;;;5.40;1.13;;;10.60;99.90;;;;;;5072274;28;20059;-47
2022/05/30 06:34:25;;;;;;;7.80;1.10;;;10.50;99.90;;;;;;5071872;28;20123;-46
2022/05/30 06:36:50;;;;;;;5.43;1.10;;;10.60;99.90;;;;;;5069336;28;20120;-47
2022/05/30 06:39:17;;;;;;;5.28;0.90;;;10.70;99.90;;;;;;5071657;28;20450;-47
2022/05/30 06:41:44;;;;;;;3.45;0.70;;;10.70;99.90;;;;;;5072100;28;20417;-46
2022/05/30 06:44:10;;;;;;;6.07;1.08;;;10.70;99.90;;;;;;5071902;28;20029;-46
2022/05/30 06:46:37;;;;;;;3.83;0.80;;;10.80;99.90;;;;;;5072000;28;20037;-45
2022/05/30 06:49:05;;;;;;;3.95;0.70;;;10.90;99.90;;;;;;5071680;28;20025;-46
2022/05/30 06:51:34;;;;;;;4.57;0.88;;;10.90;99.90;;;;;;5071164;28;20051;-44
2022/05/30 06:54:00;;;;;;;5.00;0.90;;;10.90;99.90;;;;;;5070774;28;20464;-45
2022/05/30 06:56:32;;;;;;;4.72;0.85;;;11.00;99.90;;;;;;5071508;28;20380;-46
2022/05/30 06:58:58;;;;;;;3.65;0.80;;;11.00;99.90;;;;;;5053774;28;20049;-48
2022/05/30 07:01:27;;;;;;;5.10;1.17;;;11.00;99.90;;;;;;5070495;28;20498;-47
2022/05/30 07:03:54;;;;;;;4.53;0.80;;;11.00;99.90;;;;;;5071495;28;20036;-47
2022/05/30 07:06:23;;;;;;;4.03;0.73;;;11.00;99.90;;;;;;5071848;28;20048;-48
2022/05/30 07:08:49;;;;;;;3.28;0.75;;;11.20;99.90;;;;;;5071257;28;20167;-49
2022/05/30 07:11:17;;;;;;;6.40;0.90;;;11.10;99.90;;;;;;5071435;28;20520;-47
2022/05/30 07:13:44;;;;;;;3.30;0.77;;;11.10;99.90;;;;;;5053167;28;20060;-51
2022/05/30 07:16:10;;;;;;;5.28;0.90;;;11.20;99.90;;;;;;5071460;28;20044;-50
2022/05/30 07:18:37;;;;;;;3.60;0.88;;;11.30;99.90;;;;;;5053311;28;20182;-48
2022/05/30 07:21:07;;;;;;;3.35;0.85;;;11.20;99.90;;;;;;5051896;28;20106;-52
2022/05/30 07:23:34;;;;;;;2.55;0.70;;;11.30;99.90;;;;;;5053595;28;20040;-47
2022/05/30 07:26:03;;;;;;;2.88;0.80;;;11.40;99.90;;;;;;5071261;28;20040;-46
2022/05/30 07:28:29;;;;;;;6.75;0.90;;;11.40;99.90;;;;;;5071035;28;20102;-48
2022/05/30 07:31:07;;;;;;;4.55;0.70;;;11.50;99.90;;;;;;5071380;28;20364;-48
2022/05/30 07:33:34;;;;;;;6.70;0.90;;;11.40;99.90;;;;;;5071084;28;20209;-46
2022/05/30 07:36:00;;;;;;;4.38;1.00;;;11.50;99.90;;;;;;5071005;28;20551;-49
2022/05/30 07:38:27;;;;;;;3.40;0.77;;;11.60;99.90;;;;;;5052412;28;20415;-48
2022/05/30 07:40:53;;;;;;;7.47;0.77;;;11.60;99.90;;;;;;5071229;28;20098;-49
2022/05/30 07:43:19;;;;;;;5.93;0.63;;;11.50;99.90;;;;;;5069559;28;20356;-48
2022/05/30 07:45:46;;;;;;;3.88;0.60;;;11.60;99.90;;;;;;5070873;28;20044;-46
2022/05/30 07:48:12;;;;;;;3.90;0.70;;;11.70;99.90;;;;;;5070249;28;20041;-46
2022/05/30 07:50:38;;;;;;;4.47;0.60;;;11.60;99.90;;;;;;5070820;28;20471;-46
2022/05/30 07:53:05;;;;;;;2.70;0.60;;;11.70;99.90;;;;;;5070778;28;20029;-46
2022/05/30 07:55:31;;;;;;;3.28;0.77;;;11.70;99.90;;;;;;5070062;28;20072;-48
2022/05/30 07:58:04;;;;;;;3.88;0.70;;;11.80;99.90;;;;;;5070945;28;21221;-48
2022/05/30 08:00:32;;;;;;;2.17;0.50;;;11.70;99.90;;;;;;5070639;28;20051;-50
2022/05/30 08:02:58;;;;;;;3.25;0.63;;;11.90;99.90;;;;;;5070628;28;20032;-50
2022/05/30 08:05:24;;;;;;;2.40;0.70;;;11.90;99.90;;;;;;5070353;28;20459;-49
2022/05/30 08:07:52;;;;;;;4.72;0.73;;;12.00;99.90;;;;;;5070223;28;20123;-48
2022/05/30 08:10:19;;;;;;;3.30;0.70;;;12.00;99.90;;;;;;5070565;28;20510;-50
2022/05/30 08:12:46;;;;;;;4.43;0.90;;;12.10;99.90;;;;;;5070291;28;20415;-48
2022/05/30 08:15:14;;;;;;;3.50;0.60;;;12.10;99.90;;;;;;5070271;28;20044;-48
2022/05/30 08:17:41;;;;;;;2.35;0.60;;;12.10;99.90;;;;;;5070143;28;20510;-47
2022/05/30 08:20:12;;;;;;;1.65;0.55;;;12.10;99.90;;;;;;5070309;28;20072;-49
2022/05/30 08:22:38;;;;;;;2.67;0.80;;;12.40;99.90;;;;;;5070448;28;20552;-46
2022/05/30 08:25:15;;;;;;;4.85;0.65;;;12.70;99.90;;;;;;5070251;28;20037;-47
2022/05/30 08:27:45;;;;;;;5.97;0.70;;;12.80;99.90;;;;;;5070088;28;20045;-50
2022/05/30 08:30:15;;;;;;;1.75;0.65;;;12.60;99.90;;;;;;5070511;28;20032;-48
2022/05/30 08:32:43;;;;;;;1.90;0.80;;;12.60;99.90;;;;;;5052331;28;20033;-50
2022/05/30 08:35:13;;;;;;;3.67;0.70;;;12.60;99.90;;;;;;5069957;28;20127;-48
2022/05/30 08:37:39;;;;;;;2.42;0.60;;;12.60;99.90;;;;;;5070143;28;20507;-46
2022/05/30 08:43:00;;;;;;;4.03;0.60;;;12.40;99.90;;;;;;5070035;28;20131;-49
2022/05/30 08:45:27;;;;;;;3.53;0.60;;;12.30;99.90;;;;;;5068889;28;20667;-47
2022/05/30 08:47:58;;;;;;;4.28;0.60;;;12.30;99.90;;;;;;5070071;28;20488;-48
2022/05/30 08:50:40;;;;;;;2.25;0.68;;;12.30;99.90;;;;;;5070424;28;20071;-46
2022/05/30 08:53:30;;;;;;;2.25;0.50;;;12.30;99.90;;;;;;5035117;28;20131;-50
2022/05/30 08:56:17;;;;;;;4.53;0.70;;;12.60;99.90;;;;;;5069810;28;20044;-45
2022/05/30 08:59:20;;;;;;;3.55;0.60;;;12.50;99.90;;;;;;5070083;28;20119;-50
2022/05/30 09:01:55;;;;;;;4.03;0.70;;;12.60;99.90;;;;;;5069617;28;20296;-47
2022/05/30 09:04:34;;;;;;;2.78;0.60;;;12.70;99.90;;;;;;5069695;28;20079;-48
2022/05/30 09:07:08;;;;;;;1.50;0.60;;;12.70;99.90;;;;;;5069216;28;20090;-47
2022/05/30 09:09:58;;;;;;;2.50;0.50;;;12.60;99.90;;;;;;5069363;28;20029;-50
2022/05/30 09:12:47;;;;;;;1.98;0.47;;;12.80;99.90;;;;;;5069403;28;20087;-51
2022/05/30 09:15:26;;;;;;;2.35;0.52;;;12.70;99.90;;;;;;5071158;28;20082;-48
2022/05/30 09:17:56;;;;;;;4.07;0.70;;;12.70;99.90;;;;;;5055335;28;20134;-47
2022/05/30 09:20:23;;;;;;;3.40;0.70;;;12.70;99.90;;;;;;5073558;28;20033;-49
2022/05/30 09:22:50;;;;;;;3.22;0.60;;;13.00;99.90;;;;;;5072129;28;20033;-48
2022/05/30 09:28:04;;;;;;;1.25;0.40;;;12.90;99.90;;;;;;5073483;28;20052;-49
2022/05/30 09:30:57;;;;;;;1.67;0.52;;;12.90;99.90;;;;;;5073589;28;20159;-48
2022/05/30 09:33:36;;;;;;;1.45;0.40;;;13.10;99.90;;;;;;5073047;28;20246;-46
2022/05/30 09:36:45;;;;;;;1.77;0.50;;;13.30;99.90;;;;;;5073102;28;20052;-46
2022/05/30 09:39:18;;;;;;;1.80;0.40;;;13.10;99.90;;;;;;5024476;28;20049;-48
2022/05/30 09:41:43;;;;;;;2.25;0.60;;;13.10;99.90;;;;;;5055349;28;20116;-47
2022/05/30 09:44:18;;;;;;;3.63;0.50;;;13.20;99.90;;;;;;5073228;28;20112;-48
2022/05/30 09:47:09;;;;;;;2.92;0.63;;;13.20;99.90;;;;;;5072698;28;20056;-46
2022/05/30 09:49:44;;;;;;;5.88;1.00;;;13.70;99.90;;;;;;5073062;28;20035;-49
2022/05/30 09:52:34;;;;;;;1.02;0.35;;;14.20;99.90;;;;;;5054070;28;20063;-48
2022/05/30 09:55:01;;;;;;;2.67;0.50;;;14.00;99.90;;;;;;5054653;28;20154;-49
2022/05/30 09:57:44;;;;;;;1.98;0.47;;;13.90;99.90;;;;;;5073136;28;20033;-51
2022/05/30 10:00:16;;;;;;;0.85;0.40;;;14.00;99.90;;;;;;5072696;28;20082;-49
2022/05/30 10:02:45;;;;;;;1.40;0.40;;;14.00;99.90;;;;;;5072434;28;20033;-46
2022/05/30 10:05:20;;;;;;;1.60;0.47;;;14.00;99.90;;;;;;5072540;28;20044;-48
2022/05/30 10:08:00;;;;;;;2.80;0.40;;;14.10;99.90;;;;;;5072593;28;20033;-48
2022/05/30 10:10:46;;;;;;;2.17;0.40;;;14.20;99.90;;;;;;5054508;28;21408;-49
2022/05/30 10:13:12;;;;;;;4.57;0.85;;;13.90;99.90;;;;;;5072402;28;20084;-51
2022/05/30 10:15:43;;;;;;;3.00;0.50;;;13.90;99.90;;;;;;5072341;28;20047;-51
2022/05/30 10:18:16;;;;;;;1.92;0.60;;;13.80;99.90;;;;;;5072305;28;20040;-49
2022/05/30 10:20:47;;;;;;;2.28;0.60;;;14.00;99.90;;;;;;5072527;28;20037;-49
2022/05/30 10:30:07;;;;;;;1.83;0.50;;;13.70;99.90;;;;;;5071564;28;20048;-48
2022/05/30 10:32:41;;;;;;;2.05;0.70;;;13.50;99.90;;;;;;5072437;28;20116;-46
2022/05/30 10:35:22;;;;;;;2.25;0.60;;;13.40;99.90;;;;;;5054351;28;20044;-46
2022/05/30 10:38:20;;;;;;;0.80;0.40;;;13.50;99.90;;;;;;5071968;28;20052;-46
2022/05/30 10:40:52;;;;;;;1.02;0.30;;;13.50;99.90;;;;;;5072027;28;20040;-46
2022/05/30 10:43:26;;;;;;;2.72;0.45;;;13.40;99.90;;;;;;5072112;28;20040;-47
2022/05/30 10:46:12;;;;;;;0.95;0.30;;;13.50;99.90;;;;;;5072144;28;20119;-46
2022/05/30 10:48:40;;;;;;;1.65;0.40;;;13.50;99.90;;;;;;5072029;28;20067;-52
2022/05/30 10:51:22;;;;;;;1.70;0.50;;;13.70;99.90;;;;;;5071904;28;20074;-49
2022/05/30 10:54:07;;;;;;;1.48;0.40;;;13.80;99.90;;;;;;5071966;28;20067;-48
2022/05/30 10:56:36;;;;;;;2.15;0.50;;;13.60;99.90;;;;;;5071983;28;20041;-47
2022/05/30 10:59:28;;;;;;;0.82;0.40;;;13.60;99.90;;;;;;5071524;28;20042;-48
2022/05/30 11:01:59;;;;;;;1.55;0.50;;;13.60;99.90;;;;;;5053502;28;20055;-47
2022/05/30 11:04:30;;;;;;;1.40;0.40;;;13.70;99.90;;;;;;5071756;28;20032;-49
2022/05/30 11:07:04;;;;;;;2.00;0.45;;;13.70;99.90;;;;;;5071793;28;20070;-50
2022/05/30 11:09:44;;;;;;;2.17;0.50;;;13.60;99.90;;;;;;5071398;28;20029;-49
2022/05/30 11:12:19;;;;;;;2.38;0.60;;;13.70;99.90;;;;;;5071174;28;20084;-49
2022/05/30 11:15:16;;;;;;;1.92;0.47;;;13.90;99.90;;;;;;5071703;28;20462;-49
2022/05/30 11:17:47;;;;;;;2.80;0.40;;;13.90;99.90;;;;;;5071273;28;20043;-52
2022/05/30 11:20:28;;;;;;;2.65;0.45;;;14.00;99.90;;;;;;5071538;28;20107;-48
2022/05/30 11:22:56;;;;;;;0.77;0.40;;;14.00;99.90;;;;;;5071563;28;20040;-49
2022/05/30 11:25:59;;;;;;;1.85;0.60;;;14.10;99.90;;;;;;5071424;28;20372;-49
2022/05/30 11:28:39;;;;;;;5.20;0.85;;;14.10;99.90;;;;;;5071257;28;20042;-48
2022/05/30 11:31:24;;;;;;;3.30;0.75;;;14.00;99.90;;;;;;5071549;28;20442;-48
2022/05/30 11:34:10;;;;;;;1.88;0.50;;;14.10;99.90;;;;;;5053258;28;20040;-51
2022/05/30 11:36:38;;;;;;;2.58;0.52;;;14.00;99.90;;;;;;5070963;28;20080;-48
2022/05/30 11:39:11;;;;;;;1.85;0.47;;;13.90;99.90;;;;;;5070337;28;20044;-49
2022/05/30 11:41:55;;;;;;;0.80;0.40;;;13.90;99.90;;;;;;5070958;28;20036;-50
2022/05/30 11:44:29;;;;;;;1.23;0.30;;;13.90;99.90;;;;;;5070990;28;20039;-49
2022/05/30 11:47:22;;;;;;;1.80;0.38;;;14.10;99.90;;;;;;5070654;28;20048;-47
2022/05/30 11:50:24;;;;;;;1.70;0.40;;;14.20;99.90;;;;;;5071135;28;20469;-45
2022/05/30 11:53:35;;;;;;;1.92;0.30;;;14.10;99.90;;;;;;5052528;28;20048;-49
2022/05/30 11:56:22;;;;;;;0.93;0.28;;;13.90;99.90;;;;;;5032005;28;20048;-49
2022/05/30 11:59:10;;;;;;;0.73;0.20;;;14.10;99.90;;;;;;5070428;28;20058;-49
2022/05/30 12:01:41;;;;;;;0.65;0.28;;;14.00;99.90;;;;;;5070669;28;20045;-50
2022/05/30 12:04:44;;;;;;;0.57;0.30;;;14.10;99.90;;;;;;5070860;28;20037;-49
2022/05/30 12:07:25;;;;;;;0.28;0.20;;;14.00;99.90;;;;;;5070594;28;20050;-49
2022/05/30 12:10:22;;;;;;;1.05;0.25;;;14.00;99.90;;;;;;5070608;28;20033;-48
2022/05/30 12:13:01;;;;;;;2.47;0.40;;;14.10;99.90;;;;;;5070017;28;20506;-49
2022/05/30 12:16:04;;;;;;;1.08;0.30;;;14.10;99.90;;;;;;5070482;28;20052;-48
2022/05/30 12:24:19;;;;;;;0.47;0.30;;;14.00;99.90;;;;;;5068868;28;20090;-48
2022/05/30 12:26:48;;;;;;;0.60;0.30;;;14.00;99.90;;;;;;5052163;28;20036;-47
2022/05/30 12:29:35;;;;;;;1.13;0.20;;;14.10;99.90;;;;;;5069982;28;20361;-47
2022/05/30 12:32:23;;;;;;;2.17;0.25;;;14.20;99.90;;;;;;5069826;28;20071;-49
2022/05/30 12:34:58;;;;;;;0.90;0.38;;;14.10;99.90;;;;;;5070028;28;20072;-48
2022/05/30 12:37:38;;;;;;;0.60;0.20;;;14.20;99.90;;;;;;5070028;28;20033;-47
2022/05/30 12:40:10;;;;;;;0.63;0.30;;;14.40;99.90;;;;;;5069272;28;20034;-47
2022/05/30 12:42:42;;;;;;;2.45;0.30;;;14.60;99.90;;;;;;5070053;28;20040;-50
2022/05/30 12:45:33;;;;;;;2.03;0.32;;;14.40;99.90;;;;;;5069822;28;20045;-49
2022/05/30 12:48:01;;;;;;;1.15;0.28;;;14.50;99.90;;;;;;5070012;28;20082;-49
2022/05/30 12:50:30;;;;;;;1.75;0.35;;;14.70;99.90;;;;;;5051768;28;20538;-46
2022/05/30 12:53:02;;;;;;;1.52;0.35;;;14.70;99.90;;;;;;5069934;28;20109;-48
2022/05/30 12:55:34;;;;;;;2.25;0.45;;;14.80;99.90;;;;;;5050372;28;20044;-52
2022/05/30 12:58:00;;;;;;;2.10;0.40;;;15.00;99.90;;;;;;5051755;28;20762;-48
2022/05/30 13:00:41;;;;;;;1.50;0.50;;;15.20;99.90;;;;;;5070034;28;20036;-50
2022/05/30 13:03:34;;;;;;;3.97;0.60;;;15.40;99.90;;;;;;5070115;28;20040;-52
2022/05/30 13:06:02;;;;;;;2.10;0.40;;;15.50;99.90;;;;;;5069700;28;20044;-48
2022/05/30 13:08:57;;;;;;;1.75;0.40;;;15.60;99.90;;;;;;5069570;28;20047;-47
2022/05/30 13:11:32;;;;;;;0.68;0.30;;;15.60;99.90;;;;;;5069804;28;20124;-50
2022/05/30 13:14:13;;;;;;;2.25;0.30;;;15.80;99.90;;;;;;5069979;28;20105;-46
2022/05/30 13:16:43;;;;;;;2.63;0.30;;;15.50;99.90;;;;;;5069976;28;20041;-52
2022/05/30 13:19:14;;;;;;;1.85;0.40;;;15.90;99.90;;;;;;5069934;28;20501;-47
2022/05/30 13:21:47;;;;;;;2.83;0.40;;;16.00;99.90;;;;;;5069599;28;20081;-51
2022/05/30 13:24:35;;;;;;;0.85;0.30;;;16.30;99.90;;;;;;5069697;28;20044;-49
2022/05/30 13:27:02;;;;;;;2.63;0.40;;;16.30;99.90;;;;;;5069561;28;20032;-49
2022/05/30 13:29:39;;;;;;;1.33;0.30;;;16.50;99.90;;;;;;5069260;28;20102;-51
2022/05/30 13:32:18;;;;;;;2.63;0.30;;;16.50;99.90;;;;;;5069876;28;20400;-48
2022/05/30 13:34:48;;;;;;;1.88;0.30;;;16.50;99.90;;;;;;5069926;28;20040;-49